createdAt,value
2023-03-10T00:00:39.174Z,100.00
2023-03-10T00:03:10.139Z,100.00
2023-03-10T00:05:41.832Z,100.00
2023-03-10T00:08:12.460Z,100.00
2023-03-10T00:10:43.827Z,100.00
2023-03-10T00:13:15.643Z,100.00
2023-03-10T00:15:46.162Z,100.00
2023-03-10T00:18:17.334Z,100.00
2023-03-10T00:20:48.333Z,100.00
2023-03-10T00:23:19.865Z,100.00
2023-03-10T00:26:02.459Z,100.00
2023-03-10T00:28:34.592Z,100.00
2023-03-10T00:31:10.219Z,100.00
2023-03-10T00:33:42.161Z,100.00
2023-03-10T00:36:16.891Z,100.00
2023-03-10T00:38:48.942Z,100.00
2023-03-10T00:41:22.558Z,100.00
2023-03-10T00:43:54.228Z,100.00
2023-03-10T00:46:26.330Z,100.00
2023-03-10T00:48:58.159Z,100.00
2023-03-10T00:51:29.914Z,100.00
2023-03-10T00:54:01.614Z,100.00
2023-03-10T00:56:33.536Z,100.00
2023-03-10T00:59:04.900Z,100.00
2023-03-10T01:01:40.952Z,100.00
2023-03-10T01:04:16.289Z,100.00
2023-03-10T01:06:49.140Z,100.00
2023-03-10T01:09:21.969Z,100.00
2023-03-10T01:11:53.418Z,100.00
2023-03-10T01:14:24.863Z,100.00
2023-03-10T01:16:56.315Z,100.00
2023-03-10T01:19:27.674Z,100.00
2023-03-10T01:21:58.586Z,100.00
2023-03-10T01:24:29.769Z,100.00
2023-03-10T01:27:01.125Z,100.00
2023-03-10T01:29:33.442Z,100.00
2023-03-10T01:32:04.778Z,100.00
2023-03-10T01:34:36.623Z,100.00
2023-03-10T01:37:07.239Z,100.00
2023-03-10T01:39:39.289Z,100.00
2023-03-10T01:42:11.742Z,100.00
2023-03-10T01:44:42.991Z,100.00
2023-03-10T01:47:14.984Z,100.00
2023-03-10T01:49:47.688Z,100.00
2023-03-10T01:52:26.153Z,100.00
2023-03-10T01:55:14.483Z,100.00
2023-03-10T01:57:53.229Z,100.00
2023-03-10T02:00:25.870Z,100.00
2023-03-10T02:03:20.099Z,100.00
2023-03-10T02:06:08.680Z,100.00
2023-03-10T02:08:48.719Z,100.00
2023-03-10T02:11:20.995Z,100.00
2023-03-10T02:13:56.118Z,100.00
2023-03-10T02:16:27.500Z,100.00
2023-03-10T02:18:58.246Z,100.00
2023-03-10T02:21:29.769Z,100.00
2023-03-10T02:24:30.188Z,100.00
2023-03-10T02:27:05.503Z,100.00
2023-03-10T02:29:59.391Z,100.00
2023-03-10T02:32:38.513Z,100.00
2023-03-10T02:35:10.377Z,100.00
2023-03-10T02:37:52.432Z,100.00
2023-03-10T02:40:35.407Z,100.00
2023-03-10T02:43:31.263Z,100.00
2023-03-10T02:46:10.964Z,100.00
2023-03-10T02:48:45.595Z,100.00
2023-03-10T02:51:34.433Z,100.00
2023-03-10T02:54:11.634Z,100.00
2023-03-10T02:56:44.560Z,100.00
2023-03-10T02:59:17.926Z,100.00
2023-03-10T03:01:53.307Z,100.00
2023-03-10T03:04:24.861Z,100.00
2023-03-10T03:06:55.995Z,100.00
2023-03-10T03:09:27.150Z,100.00
2023-03-10T03:11:59.440Z,100.00
2023-03-10T03:14:30.680Z,100.00
2023-03-10T03:17:02.511Z,100.00
2023-03-10T03:19:33.626Z,100.00
2023-03-10T03:22:05.310Z,100.00
2023-03-10T03:24:36.474Z,100.00
2023-03-10T03:27:08.388Z,100.00
2023-03-10T03:29:40.008Z,100.00
2023-03-10T03:32:11.767Z,100.00
2023-03-10T03:34:43.361Z,100.00
2023-03-10T03:37:15.295Z,100.00
2023-03-10T03:39:46.575Z,100.00
2023-03-10T03:42:18.189Z,100.00
2023-03-10T03:44:55.192Z,100.00
2023-03-10T03:47:26.023Z,100.00
2023-03-10T03:49:56.963Z,100.00
2023-03-10T03:52:28.279Z,100.00
2023-03-10T03:55:00.582Z,100.00
2023-03-10T03:57:33.584Z,100.00
2023-03-10T04:00:10.087Z,100.00
2023-03-10T04:02:43.048Z,100.00
2023-03-10T04:05:14.513Z,100.00
2023-03-10T04:07:47.219Z,100.00
2023-03-10T04:10:29.980Z,100.00
2023-03-10T04:13:01.982Z,100.00
2023-03-10T04:15:34.036Z,100.00
2023-03-10T04:18:05.817Z,100.00
2023-03-10T04:20:37.210Z,100.00
2023-03-10T04:23:09.544Z,100.00
2023-03-10T04:25:42.200Z,100.00
2023-03-10T04:28:15.524Z,100.00
2023-03-10T04:30:49.271Z,100.00
2023-03-10T04:33:23.813Z,100.00
2023-03-10T04:35:55.953Z,100.00
2023-03-10T04:38:28.400Z,100.00
2023-03-10T04:40:59.987Z,100.00
2023-03-10T04:43:36.314Z,100.00
2023-03-10T04:46:08.295Z,100.00
2023-03-10T04:48:40.373Z,100.00
2023-03-10T04:51:13.322Z,100.00
2023-03-10T04:53:51.393Z,100.00
2023-03-10T04:56:23.624Z,100.00
2023-03-10T04:58:56.536Z,100.00
2023-03-10T05:01:33.842Z,100.00
2023-03-10T05:04:08.862Z,100.00
2023-03-10T05:06:40.263Z,100.00
2023-03-10T05:09:31.200Z,100.00
2023-03-10T05:12:02.430Z,100.00
2023-03-10T05:14:36.172Z,100.00
2023-03-10T05:17:07.483Z,100.00
2023-03-10T05:19:39.220Z,100.00
2023-03-10T05:22:12.974Z,100.00
2023-03-10T05:24:44.533Z,100.00
2023-03-10T05:27:16.491Z,100.00
2023-03-10T05:29:48.191Z,100.00
2023-03-10T05:32:26.307Z,100.00
2023-03-10T05:34:58.113Z,100.00
2023-03-10T05:37:28.656Z,100.00
2023-03-10T05:40:01.034Z,100.00
2023-03-10T05:42:33.174Z,100.00
2023-03-10T05:45:06.515Z,100.00
2023-03-10T05:47:38.296Z,100.00
2023-03-10T05:50:11.205Z,100.00
2023-03-10T05:52:44.818Z,100.00
2023-03-10T05:55:20.311Z,100.00
2023-03-10T05:57:52.910Z,100.00
2023-03-10T06:00:24.486Z,100.00
2023-03-10T06:03:06.130Z,100.00
2023-03-10T06:05:37.725Z,100.00
2023-03-10T06:08:09.897Z,100.00
2023-03-10T06:10:41.500Z,100.00
2023-03-10T06:13:12.830Z,100.00
2023-03-10T06:15:44.487Z,100.00
2023-03-10T06:18:15.483Z,100.00
2023-03-10T06:20:47.307Z,100.00
2023-03-10T06:23:20.302Z,100.00
2023-03-10T06:26:00.177Z,100.00
2023-03-10T06:28:34.434Z,100.00
2023-03-10T06:31:13.769Z,100.00
2023-03-10T06:33:45.858Z,100.00
2023-03-10T06:36:17.909Z,100.00
2023-03-10T06:38:49.555Z,100.00
2023-03-10T06:41:20.970Z,100.00
2023-03-10T06:43:52.263Z,100.00
2023-03-10T06:46:23.836Z,100.00
2023-03-10T06:48:55.306Z,100.00
2023-03-10T06:51:26.696Z,100.00
2023-03-10T06:53:59.093Z,100.00
2023-03-10T06:56:30.459Z,100.00
2023-03-10T06:59:02.326Z,100.00
2023-03-10T07:01:36.289Z,100.00
2023-03-10T07:04:07.984Z,100.00
2023-03-10T07:06:39.468Z,100.00
2023-03-10T07:09:11.103Z,100.00
2023-03-10T07:11:44.566Z,100.00
2023-03-10T07:14:18.576Z,100.00
2023-03-10T07:16:51.255Z,100.00
2023-03-10T07:19:23.785Z,100.00
2023-03-10T07:22:02.395Z,100.00
2023-03-10T07:24:38.588Z,100.00
2023-03-10T07:27:13.245Z,100.00
2023-03-10T07:29:46.709Z,100.00
2023-03-10T07:32:19.165Z,100.00
2023-03-10T07:34:53.475Z,100.00
2023-03-10T07:37:25.034Z,100.00
2023-03-10T07:39:58.915Z,100.00
2023-03-10T07:42:30.166Z,100.00
2023-03-10T07:45:02.626Z,100.00
2023-03-10T07:47:34.024Z,100.00
2023-03-10T07:50:05.389Z,100.00
2023-03-10T07:52:36.428Z,100.00
2023-03-10T07:55:08.397Z,100.00
2023-03-10T07:57:39.787Z,100.00
2023-03-10T08:00:12.231Z,100.00
2023-03-10T08:02:44.159Z,100.00
2023-03-10T08:05:16.366Z,100.00
2023-03-10T08:07:47.609Z,100.00
2023-03-10T08:10:20.367Z,100.00
2023-03-10T08:12:51.840Z,100.00
2023-03-10T08:15:22.689Z,100.00
2023-03-10T08:17:54.055Z,100.00
2023-03-10T08:20:25.472Z,100.00
2023-03-10T08:22:57.085Z,100.00
2023-03-10T08:25:28.326Z,100.00
2023-03-10T08:27:59.645Z,100.00
2023-03-10T08:30:30.769Z,100.00
2023-03-10T08:33:02.220Z,100.00
2023-03-10T08:35:34.331Z,100.00
2023-03-10T08:38:07.166Z,100.00
2023-03-10T08:40:38.609Z,100.00
2023-03-10T08:43:09.989Z,100.00
2023-03-10T08:45:41.515Z,100.00
2023-03-10T08:48:12.535Z,100.00
2023-03-10T08:50:43.892Z,100.00
2023-03-10T08:53:14.825Z,100.00
2023-03-10T08:55:48.956Z,100.00
2023-03-10T08:58:20.173Z,100.00
2023-03-10T09:00:51.920Z,100.00
2023-03-10T09:03:22.889Z,100.00
2023-03-10T09:05:54.136Z,100.00
2023-03-10T09:08:27.558Z,100.00
2023-03-10T09:10:59.241Z,100.00
2023-03-10T09:13:30.515Z,100.00
2023-03-10T09:16:02.274Z,100.00
2023-03-10T09:18:33.732Z,100.00
2023-03-10T09:21:04.898Z,100.00
2023-03-10T09:23:41.439Z,100.00
2023-03-10T09:26:13.563Z,100.00
2023-03-10T09:28:47.585Z,100.00
2023-03-10T09:31:25.704Z,100.00
2023-03-10T09:33:59.628Z,100.00
2023-03-10T09:36:32.252Z,100.00
2023-03-10T09:39:04.462Z,100.00
2023-03-10T09:41:47.638Z,100.00
2023-03-10T09:44:46.159Z,100.00
2023-03-10T09:47:44.852Z,100.00
2023-03-10T09:50:44.857Z,100.00
2023-03-10T09:53:51.853Z,100.00
2023-03-10T09:56:30.012Z,100.00
2023-03-10T09:59:27.724Z,100.00
2023-03-10T10:02:00.889Z,100.00
2023-03-10T10:04:41.392Z,100.00
2023-03-10T10:07:22.426Z,100.00
2023-03-10T10:09:54.798Z,100.00
2023-03-10T10:12:28.787Z,100.00
2023-03-10T10:15:16.055Z,100.00
2023-03-10T10:17:55.138Z,100.00
2023-03-10T10:20:40.681Z,100.00
2023-03-10T10:23:23.944Z,100.00
2023-03-10T10:25:56.229Z,100.00
2023-03-10T10:28:49.229Z,100.00
2023-03-10T10:31:24.773Z,100.00
2023-03-10T10:33:57.337Z,100.00
2023-03-10T10:36:34.641Z,100.00
2023-03-10T10:39:21.064Z,100.00
2023-03-10T10:41:52.697Z,100.00
2023-03-10T10:44:23.912Z,100.00
2023-03-10T10:46:57.973Z,100.00
2023-03-10T10:49:33.169Z,100.00
2023-03-10T10:52:06.938Z,100.00
2023-03-10T10:54:41.461Z,100.00
2023-03-10T10:57:23.557Z,100.00
2023-03-10T10:59:55.216Z,100.00
2023-03-10T11:02:37.378Z,100.00
2023-03-10T11:05:16.526Z,100.00
2023-03-10T11:07:47.768Z,100.00
2023-03-10T11:10:39.785Z,100.00
2023-03-10T11:13:34.183Z,100.00
2023-03-10T11:16:42.931Z,100.00
2023-03-10T11:19:33.574Z,100.00
2023-03-10T11:22:36.154Z,100.00
2023-03-10T11:25:34.738Z,100.00
2023-03-10T11:28:27.967Z,100.00
2023-03-10T11:31:14.033Z,100.00
2023-03-10T11:34:13.045Z,100.00
2023-03-10T11:37:07.316Z,100.00
2023-03-10T11:39:57.458Z,100.00
2023-03-10T11:42:43.153Z,100.00
2023-03-10T11:45:39.404Z,100.00
2023-03-10T11:48:45.544Z,100.00
2023-03-10T11:51:28.002Z,100.00
2023-03-10T11:54:05.721Z,100.00
2023-03-10T11:56:40.404Z,100.00
2023-03-10T11:59:19.495Z,100.00
2023-03-10T12:02:08.069Z,100.00
2023-03-10T12:04:51.016Z,100.00
2023-03-10T12:07:32.413Z,100.00
2023-03-10T12:10:15.784Z,100.00
2023-03-10T12:12:49.001Z,100.00
2023-03-10T12:15:38.488Z,100.00
2023-03-10T12:18:10.667Z,100.00
2023-03-10T12:20:42.260Z,100.00
2023-03-10T12:23:13.462Z,100.00
2023-03-10T12:25:45.526Z,100.00
2023-03-10T12:28:20.016Z,100.00
2023-03-10T12:30:52.605Z,100.00
2023-03-10T12:33:39.279Z,100.00
2023-03-10T12:36:22.835Z,100.00
2023-03-10T12:38:55.438Z,100.00
2023-03-10T12:41:30.052Z,100.00
2023-03-10T12:44:04.158Z,100.00
2023-03-10T12:47:01.624Z,100.00
2023-03-10T12:50:13.160Z,100.00
2023-03-10T12:52:49.726Z,100.00
2023-03-10T12:55:28.188Z,100.00
2023-03-10T12:58:14.832Z,100.00
2023-03-10T13:01:00.172Z,100.00
2023-03-10T13:03:54.402Z,100.00
2023-03-10T13:06:42.820Z,100.00
2023-03-10T13:09:39.949Z,100.00
2023-03-10T13:12:33.882Z,100.00
2023-03-10T13:15:09.643Z,100.00
2023-03-10T13:17:40.992Z,100.00
2023-03-10T13:20:19.047Z,100.00
2023-03-10T13:23:01.165Z,100.00
2023-03-10T13:25:34.248Z,100.00
2023-03-10T13:28:13.503Z,100.00
2023-03-10T13:30:44.828Z,100.00
2023-03-10T13:33:29.237Z,100.00
2023-03-10T13:36:01.194Z,100.00
2023-03-10T13:38:31.832Z,100.00
2023-03-10T13:41:04.760Z,100.00
2023-03-10T13:43:43.139Z,100.00
2023-03-10T13:46:24.877Z,100.00
2023-03-10T13:48:57.888Z,100.00
2023-03-10T13:51:34.152Z,100.00
2023-03-10T13:54:24.243Z,100.00
2023-03-10T13:57:13.999Z,100.00
2023-03-10T13:59:45.392Z,100.00
2023-03-10T14:02:39.756Z,100.00
2023-03-10T14:05:40.970Z,100.00
2023-03-10T14:08:32.558Z,100.00
2023-03-10T14:11:26.415Z,100.00
2023-03-10T14:13:57.867Z,100.00
2023-03-10T14:16:48.035Z,100.00
2023-03-10T14:19:43.741Z,100.00
2023-03-10T14:22:24.277Z,100.00
2023-03-10T14:24:55.748Z,100.00
2023-03-10T14:27:27.973Z,100.00
2023-03-10T14:30:02.747Z,100.00
2023-03-10T14:32:33.985Z,100.00
2023-03-10T14:35:08.119Z,100.00
2023-03-10T14:37:39.602Z,100.00
2023-03-10T14:40:12.404Z,100.00
2023-03-10T14:42:44.411Z,100.00
2023-03-10T14:45:48.981Z,100.00
2023-03-10T14:48:22.926Z,100.00
2023-03-10T14:50:56.720Z,100.00
2023-03-10T14:53:29.641Z,100.00
2023-03-10T14:56:03.823Z,100.00
2023-03-10T14:58:39.310Z,100.00
2023-03-10T15:01:10.633Z,100.00
2023-03-10T15:03:42.954Z,100.00
2023-03-10T15:06:19.798Z,100.00
2023-03-10T15:08:52.008Z,100.00
2023-03-10T15:11:36.139Z,100.00
2023-03-10T15:14:20.824Z,100.00
2023-03-10T15:16:52.090Z,100.00
2023-03-10T15:19:27.236Z,100.00
2023-03-10T15:22:07.274Z,100.00
2023-03-10T15:24:38.587Z,100.00
2023-03-10T15:27:12.348Z,100.00
2023-03-10T15:29:43.839Z,100.00
2023-03-10T15:32:15.548Z,100.00
2023-03-10T15:34:46.966Z,100.00
2023-03-10T15:37:18.189Z,100.00
2023-03-10T15:39:49.733Z,100.00
2023-03-10T15:42:21.130Z,100.00
2023-03-10T15:44:53.425Z,100.00
2023-03-10T15:47:25.366Z,100.00
2023-03-10T15:49:56.332Z,100.00
2023-03-10T15:52:27.818Z,100.00
2023-03-10T15:54:59.832Z,100.00
2023-03-10T15:57:31.842Z,100.00
2023-03-10T16:00:02.888Z,100.00
2023-03-10T16:02:35.725Z,100.00
2023-03-10T16:05:08.290Z,100.00
2023-03-10T16:07:40.169Z,100.00
2023-03-10T16:10:16.651Z,100.00
2023-03-10T16:12:48.611Z,100.00
2023-03-10T16:15:20.249Z,100.00
2023-03-10T16:17:51.525Z,100.00
2023-03-10T16:20:22.934Z,100.00
2023-03-10T16:22:54.321Z,100.00
2023-03-10T16:25:25.680Z,100.00
2023-03-10T16:27:57.384Z,100.00
2023-03-10T16:30:28.732Z,100.00
2023-03-10T16:33:02.393Z,100.00
2023-03-10T16:35:33.856Z,100.00
2023-03-10T16:38:04.943Z,100.00
2023-03-10T16:40:36.181Z,100.00
2023-03-10T16:43:07.342Z,100.00
2023-03-10T16:45:38.798Z,100.00
2023-03-10T16:48:10.893Z,100.00
2023-03-10T16:50:42.077Z,100.00
2023-03-10T16:53:13.525Z,100.00
2023-03-10T16:55:44.789Z,100.00
2023-03-10T16:58:16.449Z,100.00
2023-03-10T17:00:47.726Z,100.00
2023-03-10T17:03:18.787Z,100.00
2023-03-10T17:05:53.784Z,100.00
2023-03-10T17:08:25.204Z,100.00
2023-03-10T17:10:56.044Z,100.00
2023-03-10T17:13:27.433Z,100.00
2023-03-10T17:15:58.918Z,100.00
2023-03-10T17:18:29.947Z,100.00
2023-03-10T17:21:01.242Z,100.00
2023-03-10T17:23:32.432Z,100.00
2023-03-10T17:26:03.667Z,100.00
2023-03-10T17:28:34.478Z,100.00
2023-03-10T17:31:15.953Z,100.00
2023-03-10T17:33:47.404Z,100.00
2023-03-10T17:36:19.184Z,100.00
2023-03-10T17:38:52.062Z,100.00
2023-03-10T17:41:23.146Z,100.00
2023-03-10T17:43:56.284Z,100.00
2023-03-10T17:46:31.961Z,100.00
2023-03-10T17:49:03.891Z,100.00
2023-03-10T17:51:35.192Z,100.00
2023-03-10T17:54:06.729Z,100.00
2023-03-10T17:56:38.018Z,100.00
2023-03-10T17:59:09.286Z,100.00
2023-03-10T18:01:40.828Z,100.00
2023-03-10T18:04:12.862Z,100.00
2023-03-10T18:06:44.247Z,100.00
2023-03-10T18:09:17.092Z,100.00
2023-03-10T18:11:48.869Z,100.00
2023-03-10T18:14:20.078Z,100.00
2023-03-10T18:16:51.566Z,100.00
2023-03-10T18:19:23.480Z,100.00
2023-03-10T18:21:54.960Z,100.00
2023-03-10T18:24:26.716Z,100.00
2023-03-10T18:26:58.468Z,100.00
2023-03-10T18:29:29.177Z,100.00
2023-03-10T18:32:00.650Z,100.00
2023-03-10T18:34:32.125Z,100.00
2023-03-10T18:37:03.780Z,100.00
2023-03-10T18:39:35.339Z,100.00
2023-03-10T18:42:06.584Z,100.00
2023-03-10T18:44:37.573Z,100.00
2023-03-10T18:47:08.858Z,100.00
2023-03-10T18:49:40.834Z,100.00
2023-03-10T18:52:17.380Z,100.00
2023-03-10T18:54:50.208Z,100.00
2023-03-10T18:57:21.933Z,100.00
2023-03-10T18:59:53.352Z,100.00
2023-03-10T19:02:24.542Z,100.00
2023-03-10T19:04:56.231Z,100.00
2023-03-10T19:07:27.664Z,100.00
2023-03-10T19:09:58.805Z,100.00
2023-03-10T19:12:30.296Z,100.00
2023-03-10T19:15:03.292Z,100.00
2023-03-10T19:17:35.055Z,100.00
2023-03-10T19:20:12.757Z,100.00
2023-03-10T19:22:44.724Z,100.00
2023-03-10T19:25:15.322Z,100.00
2023-03-10T19:27:46.759Z,100.00
2023-03-10T19:30:21.533Z,100.00
2023-03-10T19:32:52.929Z,100.00
2023-03-10T19:35:24.004Z,100.00
2023-03-10T19:37:55.281Z,100.00
2023-03-10T19:40:26.633Z,100.00
2023-03-10T19:42:58.293Z,100.00
2023-03-10T19:45:30.407Z,100.00
2023-03-10T19:48:01.487Z,100.00
2023-03-10T19:50:33.854Z,100.00
2023-03-10T19:53:06.684Z,100.00
2023-03-10T19:55:39.548Z,100.00
2023-03-10T19:58:10.732Z,100.00
2023-03-10T20:00:41.720Z,100.00
2023-03-10T20:03:13.411Z,100.00
2023-03-10T20:05:45.031Z,100.00
2023-03-10T20:08:15.609Z,100.00
2023-03-10T20:10:47.586Z,100.00
2023-03-10T20:13:18.973Z,100.00
2023-03-10T20:15:49.708Z,100.00
2023-03-10T20:18:22.684Z,100.00
2023-03-10T20:20:54.215Z,100.00
2023-03-10T20:23:25.782Z,100.00
2023-03-10T20:26:04.988Z,100.00
2023-03-10T20:28:37.453Z,100.00
2023-03-10T20:31:09.706Z,100.00
2023-03-10T20:33:41.266Z,100.00
2023-03-10T20:36:15.383Z,100.00
2023-03-10T20:38:48.437Z,100.00
2023-03-10T20:41:20.705Z,100.00
2023-03-10T20:43:54.880Z,100.00
2023-03-10T20:46:27.394Z,100.00
2023-03-10T20:48:59.098Z,100.00
2023-03-10T20:51:30.953Z,100.00
2023-03-10T20:54:01.956Z,100.00
2023-03-10T20:56:34.732Z,100.00
2023-03-10T20:59:06.057Z,100.00
2023-03-10T21:01:41.249Z,100.00
2023-03-10T21:04:12.706Z,100.00
2023-03-10T21:06:43.555Z,100.00
2023-03-10T21:09:15.425Z,100.00
2023-03-10T21:11:46.623Z,100.00
2023-03-10T21:14:18.491Z,100.00
2023-03-10T21:16:50.020Z,100.00
2023-03-10T21:19:20.691Z,100.00
2023-03-10T21:21:51.780Z,100.00
2023-03-10T21:24:23.777Z,100.00
2023-03-10T21:26:55.055Z,100.00
2023-03-10T21:29:26.385Z,100.00
2023-03-10T21:31:57.822Z,100.00
2023-03-10T21:34:29.728Z,100.00
2023-03-10T21:37:01.688Z,100.00
2023-03-10T21:39:33.367Z,100.00
2023-03-10T21:42:04.853Z,100.00
2023-03-10T21:44:35.783Z,100.00
2023-03-10T21:47:06.892Z,100.00
2023-03-10T21:49:37.750Z,100.00
2023-03-10T21:52:10.490Z,100.00
2023-03-10T21:54:42.287Z,100.00
2023-03-10T21:57:13.817Z,100.00
2023-03-10T21:59:44.182Z,100.00
2023-03-10T22:02:27.270Z,100.00
2023-03-10T22:04:59.247Z,100.00
2023-03-10T22:07:30.851Z,100.00
2023-03-10T22:10:02.992Z,100.00
2023-03-10T22:12:34.926Z,100.00
2023-03-10T22:15:08.180Z,100.00
2023-03-10T22:17:39.902Z,100.00
2023-03-10T22:20:22.066Z,100.00
2023-03-10T22:22:53.388Z,100.00
2023-03-10T22:25:25.348Z,99.84
2023-03-10T22:27:57.976Z,100.00
2023-03-10T22:30:30.789Z,96.78
2023-03-10T22:33:04.465Z,96.94
2023-03-10T22:35:37.317Z,100.00
2023-03-10T22:38:08.996Z,92.42
2023-03-10T22:40:40.030Z,95.91
2023-03-10T22:43:11.325Z,92.96
2023-03-10T22:45:43.369Z,93.23
2023-03-10T22:48:14.636Z,86.94
2023-03-10T22:50:48.146Z,85.77
2023-03-10T22:53:22.448Z,88.69
2023-03-10T22:55:53.881Z,90.24
2023-03-10T22:58:24.627Z,87.76
2023-03-10T23:00:56.006Z,100.00
2023-03-10T23:03:26.587Z,100.00
2023-03-10T23:06:00.027Z,100.00
2023-03-10T23:08:31.470Z,100.00
2023-03-10T23:11:02.751Z,100.00
2023-03-10T23:13:34.156Z,94.58
2023-03-10T23:16:05.312Z,96.37
2023-03-10T23:18:36.865Z,93.43
2023-03-10T23:21:08.603Z,97.29
2023-03-10T23:23:40.717Z,92.27
2023-03-10T23:26:13.056Z,87.80
2023-03-10T23:28:44.543Z,92.52
2023-03-10T23:31:18.393Z,92.53
2023-03-10T23:33:50.961Z,88.03
2023-03-10T23:36:22.330Z,90.64
2023-03-10T23:38:53.764Z,83.41
2023-03-10T23:41:26.522Z,89.47
2023-03-10T23:43:57.707Z,91.02
2023-03-10T23:46:29.374Z,93.62
2023-03-10T23:49:00.853Z,87.67
2023-03-10T23:51:32.336Z,87.63
2023-03-10T23:54:04.192Z,93.06
2023-03-10T23:56:35.592Z,91.97
2023-03-10T23:59:06.070Z,93.90
